createdAt,value
2023-04-16T00:01:07.989Z,9.70
2023-04-16T00:03:38.623Z,9.70
2023-04-16T00:06:08.015Z,9.80
2023-04-16T00:08:37.802Z,9.80
2023-04-16T00:11:08.593Z,9.70
2023-04-16T00:13:37.207Z,9.80
2023-04-16T00:16:06.365Z,9.90
2023-04-16T00:18:36.794Z,9.90
2023-04-16T00:21:10.663Z,9.90
2023-04-16T00:23:39.711Z,9.90
2023-04-16T00:26:10.165Z,9.90
2023-04-16T00:28:38.977Z,9.80
2023-04-16T00:31:08.519Z,9.90
2023-04-16T00:33:37.262Z,9.90
2023-04-16T00:36:08.267Z,9.90
2023-04-16T00:38:36.965Z,9.90
2023-04-16T00:41:06.397Z,9.90
2023-04-16T00:43:35.170Z,9.90
2023-04-16T00:46:07.685Z,9.90
2023-04-16T00:48:39.257Z,9.90
2023-04-16T00:51:11.202Z,9.90
2023-04-16T00:53:41.881Z,10.00
2023-04-16T00:56:12.491Z,9.90
2023-04-16T00:58:41.941Z,9.90
2023-04-16T01:01:10.825Z,9.90
2023-04-16T01:03:42.050Z,9.90
2023-04-16T01:06:15.260Z,10.00
2023-04-16T01:08:43.950Z,10.00
2023-04-16T01:11:13.206Z,10.10
2023-04-16T01:13:42.720Z,10.10
2023-04-16T01:16:13.506Z,10.10
2023-04-16T01:18:42.404Z,10.10
2023-04-16T01:21:13.203Z,10.10
2023-04-16T01:23:42.301Z,10.10
2023-04-16T01:26:11.073Z,10.10
2023-04-16T01:28:39.867Z,10.10
2023-04-16T01:31:08.764Z,10.10
2023-04-16T01:33:39.131Z,10.00
2023-04-16T01:36:11.261Z,10.00
2023-04-16T01:38:41.633Z,9.90
2023-04-16T01:41:11.022Z,9.90
2023-04-16T01:43:43.316Z,9.80
2023-04-16T01:46:25.063Z,9.90
2023-04-16T01:48:54.904Z,9.90
2023-04-16T01:51:25.477Z,9.90
2023-04-16T01:53:58.394Z,10.00
2023-04-16T01:56:27.698Z,10.00
2023-04-16T01:58:56.729Z,9.90
2023-04-16T02:01:26.718Z,10.00
2023-04-16T02:03:55.598Z,10.00
2023-04-16T02:06:24.635Z,10.00
2023-04-16T02:08:54.966Z,10.00
2023-04-16T02:11:23.677Z,10.00
2023-04-16T02:13:52.576Z,10.00
2023-04-16T02:16:21.414Z,10.00
2023-04-16T02:18:50.435Z,10.00
2023-04-16T02:21:20.333Z,10.10
2023-04-16T02:23:52.052Z,10.10
2023-04-16T02:26:23.420Z,10.10
2023-04-16T02:28:52.482Z,10.10
2023-04-16T02:31:22.606Z,10.10
2023-04-16T02:33:51.525Z,10.10
2023-04-16T02:36:20.418Z,10.20
2023-04-16T02:38:49.256Z,10.20
2023-04-16T02:41:18.503Z,10.20
2023-04-16T02:43:49.297Z,10.20
2023-04-16T02:46:18.476Z,10.20
2023-04-16T02:48:47.623Z,10.20
2023-04-16T02:51:16.408Z,10.20
2023-04-16T02:53:46.471Z,10.20
2023-04-16T02:56:15.079Z,10.20
2023-04-16T02:58:44.296Z,10.30
2023-04-16T03:01:16.881Z,10.30
2023-04-16T03:03:46.355Z,10.30
2023-04-16T03:06:15.361Z,10.10
2023-04-16T03:08:46.053Z,10.00
2023-04-16T03:11:14.771Z,9.90
2023-04-16T03:13:43.249Z,9.70
2023-04-16T03:16:13.606Z,9.80
2023-04-16T03:18:42.705Z,9.80
2023-04-16T03:21:11.410Z,9.90
2023-04-16T03:23:40.239Z,9.80
2023-04-16T03:26:08.841Z,9.80
2023-04-16T03:28:37.651Z,9.60
2023-04-16T03:31:06.393Z,9.60
2023-04-16T03:33:36.823Z,9.50
2023-04-16T03:36:06.130Z,9.50
2023-04-16T03:38:34.968Z,9.50
2023-04-16T03:41:03.992Z,9.50
2023-04-16T03:43:33.019Z,9.60
2023-04-16T03:46:02.149Z,9.70
2023-04-16T03:48:31.521Z,9.80
2023-04-16T03:51:02.299Z,9.70
2023-04-16T03:53:31.622Z,9.70
2023-04-16T03:56:01.459Z,9.70
2023-04-16T03:58:30.412Z,9.80
2023-04-16T04:00:59.211Z,9.70
2023-04-16T04:03:28.685Z,9.70
2023-04-16T04:05:57.601Z,9.90
2023-04-16T04:08:28.575Z,9.70
2023-04-16T04:10:58.482Z,9.70
2023-04-16T04:13:27.647Z,9.60
2023-04-16T04:15:56.382Z,9.60
2023-04-16T04:18:25.331Z,9.70
2023-04-16T04:20:54.313Z,9.70
2023-04-16T04:23:22.987Z,9.70
2023-04-16T04:25:53.420Z,9.60
2023-04-16T04:28:22.383Z,9.60
2023-04-16T04:30:51.220Z,9.60
2023-04-16T04:33:20.061Z,9.70
2023-04-16T04:35:50.242Z,9.70
2023-04-16T04:38:22.113Z,9.80
2023-04-16T04:40:52.647Z,9.80
2023-04-16T04:43:22.442Z,9.80
2023-04-16T04:45:52.537Z,9.90
2023-04-16T04:48:26.529Z,9.80
2023-04-16T04:50:55.148Z,9.60
2023-04-16T04:53:23.912Z,9.60
2023-04-16T04:55:57.304Z,9.50
2023-04-16T04:58:30.713Z,9.60
2023-04-16T05:00:59.729Z,9.70
2023-04-16T05:03:28.296Z,9.50
2023-04-16T05:05:57.321Z,9.30
2023-04-16T05:08:26.109Z,9.30
2023-04-16T05:10:56.242Z,9.30
2023-04-16T05:13:25.224Z,9.30
2023-04-16T05:15:54.298Z,9.30
2023-04-16T05:18:22.871Z,9.40
2023-04-16T05:20:52.074Z,9.30
2023-04-16T05:23:21.552Z,9.30
2023-04-16T05:25:50.429Z,9.30
2023-04-16T05:28:20.699Z,9.30
2023-04-16T05:30:49.438Z,9.40
2023-04-16T05:33:21.402Z,9.30
2023-04-16T05:35:50.556Z,9.30
2023-04-16T05:38:19.910Z,9.30
2023-04-16T05:40:48.635Z,9.20
2023-04-16T05:43:17.537Z,9.20
2023-04-16T05:45:47.470Z,9.00
2023-04-16T05:48:16.503Z,9.20
2023-04-16T05:50:45.006Z,9.30
2023-04-16T05:53:14.305Z,9.20
2023-04-16T05:55:42.931Z,9.20
2023-04-16T05:58:12.047Z,9.30
2023-04-16T06:00:41.606Z,9.30
2023-04-16T06:03:12.490Z,9.30
2023-04-16T06:05:42.073Z,9.20
2023-04-16T06:08:10.827Z,9.20
2023-04-16T06:10:40.081Z,9.30
2023-04-16T06:13:08.871Z,9.20
2023-04-16T06:15:38.083Z,9.30
2023-04-16T06:18:08.454Z,9.40
2023-04-16T06:20:39.702Z,9.50
2023-04-16T06:23:08.286Z,9.40
2023-04-16T06:25:37.504Z,9.50
2023-04-16T06:28:06.454Z,9.50
2023-04-16T06:30:35.827Z,9.50
2023-04-16T06:33:07.028Z,9.50
2023-04-16T06:35:36.022Z,9.50
2023-04-16T06:38:06.259Z,9.50
2023-04-16T06:40:37.194Z,9.50
2023-04-16T06:43:06.473Z,9.50
2023-04-16T06:45:38.391Z,9.40
2023-04-16T06:48:07.857Z,9.50
2023-04-16T06:50:36.768Z,9.60
2023-04-16T06:53:07.345Z,9.60
2023-04-16T06:55:36.054Z,9.60
2023-04-16T06:58:20.728Z,9.50
2023-04-16T07:00:49.581Z,9.40
2023-04-16T07:03:18.378Z,9.40
2023-04-16T07:05:47.797Z,9.60
2023-04-16T07:08:18.160Z,9.70
2023-04-16T07:10:46.990Z,9.80
2023-04-16T07:13:16.440Z,9.90
2023-04-16T07:15:45.448Z,9.90
2023-04-16T07:18:15.089Z,10.00
2023-04-16T07:20:43.852Z,10.10
2023-04-16T07:23:13.099Z,10.00
2023-04-16T07:25:43.922Z,10.00
2023-04-16T07:28:13.060Z,10.00
2023-04-16T07:30:41.749Z,10.10
2023-04-16T07:33:11.440Z,10.20
2023-04-16T07:35:40.269Z,10.20
2023-04-16T07:38:08.823Z,10.10
2023-04-16T07:40:38.651Z,10.10
2023-04-16T07:43:09.556Z,10.10
2023-04-16T07:45:38.167Z,10.10
2023-04-16T07:48:08.248Z,10.20
2023-04-16T07:50:38.205Z,10.20
2023-04-16T07:53:07.899Z,10.10
2023-04-16T07:55:37.902Z,10.10
2023-04-16T07:58:09.740Z,10.20
2023-04-16T08:00:39.631Z,10.40
2023-04-16T08:03:08.632Z,10.50
2023-04-16T08:05:37.579Z,10.50
2023-04-16T08:08:06.795Z,10.60
2023-04-16T08:10:35.924Z,10.50
2023-04-16T08:13:04.592Z,10.50
2023-04-16T08:15:35.984Z,10.70
2023-04-16T08:18:06.190Z,10.60
2023-04-16T08:20:37.871Z,10.60
2023-04-16T08:23:06.610Z,10.60
2023-04-16T08:25:36.210Z,10.40
2023-04-16T08:28:05.486Z,10.30
2023-04-16T08:30:36.087Z,10.30
2023-04-16T08:33:05.186Z,10.30
2023-04-16T08:35:34.470Z,10.50
2023-04-16T08:38:04.921Z,10.60
2023-04-16T08:40:36.365Z,10.70
2023-04-16T08:43:12.566Z,10.70
2023-04-16T08:45:44.477Z,10.60
2023-04-16T08:48:14.007Z,10.70
2023-04-16T08:50:45.245Z,10.70
2023-04-16T08:53:20.541Z,10.70
2023-04-16T08:55:51.800Z,10.60
2023-04-16T08:58:23.300Z,10.60
2023-04-16T09:00:54.584Z,10.60
2023-04-16T09:03:23.924Z,10.50
2023-04-16T09:05:54.200Z,10.40
2023-04-16T09:08:22.953Z,10.40
2023-04-16T09:10:53.938Z,10.40
2023-04-16T09:13:23.999Z,10.40
2023-04-16T09:16:01.742Z,10.40
2023-04-16T09:24:57.185Z,10.40
2023-04-16T09:27:43.533Z,10.40
2023-04-16T09:36:55.947Z,10.60
2023-04-16T09:39:45.349Z,10.70
2023-04-16T09:42:15.687Z,10.50
2023-04-16T09:45:49.685Z,10.40
2023-04-16T09:48:33.580Z,10.40
2023-04-16T09:51:16.840Z,10.40
2023-04-16T09:54:03.785Z,10.30
2023-04-16T09:56:43.352Z,10.50
2023-04-16T10:03:11.700Z,10.60
2023-04-16T10:05:41.295Z,10.60
2023-04-16T10:08:19.122Z,10.70
2023-04-16T10:12:12.649Z,10.60
2023-04-16T10:14:42.254Z,10.50
2023-04-16T10:17:11.870Z,10.70
2023-04-16T10:19:43.055Z,10.80
2023-04-16T10:22:28.305Z,10.90
2023-04-16T10:25:48.694Z,10.80
2023-04-16T10:28:19.365Z,10.80
2023-04-16T10:31:03.369Z,11.00
2023-04-16T10:33:42.744Z,11.10
2023-04-16T10:43:09.010Z,11.30
2023-04-16T10:45:54.515Z,11.30
2023-04-16T10:48:49.671Z,11.30
2023-04-16T10:52:15.009Z,11.30
2023-04-16T10:54:44.989Z,11.30
2023-04-16T10:57:22.176Z,11.20
2023-04-16T11:00:28.278Z,11.10
2023-04-16T11:06:13.757Z,11.00
2023-04-16T11:08:54.610Z,11.00
2023-04-16T11:11:25.011Z,11.00
2023-04-16T11:13:58.300Z,11.10
2023-04-16T11:17:03.158Z,10.90
2023-04-16T11:24:34.262Z,11.00
2023-04-16T11:27:05.798Z,11.20
2023-04-16T11:30:38.167Z,11.10
2023-04-16T11:37:46.687Z,10.90
2023-04-16T11:40:36.267Z,11.10
2023-04-16T11:43:20.254Z,11.10
2023-04-16T11:45:59.912Z,11.20
2023-04-16T11:48:49.306Z,11.30
2023-04-16T11:51:51.874Z,11.20
2023-04-16T11:54:56.893Z,11.20
2023-04-16T11:58:51.700Z,10.90
2023-04-16T12:01:24.126Z,10.70
2023-04-16T12:04:04.014Z,10.60
2023-04-16T12:06:35.396Z,10.60
2023-04-16T12:09:25.753Z,10.60
2023-04-16T12:11:54.790Z,10.70
2023-04-16T12:14:28.381Z,10.80
2023-04-16T12:16:58.482Z,10.60
2023-04-16T12:19:27.396Z,10.60
2023-04-16T12:21:56.673Z,10.60
2023-04-16T12:24:27.692Z,10.70
2023-04-16T12:26:57.733Z,10.80
2023-04-16T12:29:30.961Z,10.70
2023-04-16T12:33:04.656Z,10.90
2023-04-16T12:36:02.544Z,11.20
2023-04-16T12:38:37.252Z,11.10
2023-04-16T12:41:09.207Z,10.80
2023-04-16T12:46:35.971Z,11.00
2023-04-16T12:52:24.799Z,10.90
2023-04-16T12:54:56.402Z,10.90
2023-04-16T12:57:28.881Z,11.00
2023-04-16T12:59:58.594Z,10.90
2023-04-16T13:02:29.608Z,10.90
2023-04-16T13:04:59.846Z,10.80
2023-04-16T13:07:32.153Z,10.80
2023-04-16T13:10:04.784Z,10.90
2023-04-16T13:12:34.381Z,11.00
2023-04-16T13:15:03.224Z,11.00
2023-04-16T13:17:33.464Z,11.00
2023-04-16T13:20:02.349Z,11.00
2023-04-16T13:22:49.988Z,10.90
2023-04-16T13:25:18.924Z,10.90
2023-04-16T13:27:47.470Z,10.90
2023-04-16T13:30:16.468Z,11.00
2023-04-16T13:32:47.366Z,11.00
2023-04-16T13:35:16.147Z,11.20
2023-04-16T13:37:47.634Z,11.30
2023-04-16T13:40:16.787Z,11.30
2023-04-16T13:42:50.098Z,11.40
2023-04-16T13:45:20.501Z,11.30
2023-04-16T13:47:52.603Z,11.40
2023-04-16T13:50:21.507Z,11.30
2023-04-16T13:52:50.789Z,11.20
2023-04-16T13:55:21.255Z,11.10
2023-04-16T13:57:52.541Z,11.10
2023-04-16T14:00:26.002Z,11.10
2023-04-16T14:02:57.373Z,11.20
2023-04-16T14:05:27.299Z,11.20
2023-04-16T14:07:56.440Z,11.30
2023-04-16T14:10:25.007Z,11.30
2023-04-16T14:12:54.994Z,11.40
2023-04-16T14:15:27.611Z,11.30
2023-04-16T14:17:57.990Z,11.20
2023-04-16T14:20:29.037Z,11.20
2023-04-16T14:22:57.592Z,11.20
2023-04-16T14:25:26.440Z,11.10
2023-04-16T14:27:55.185Z,11.20
2023-04-16T14:30:23.746Z,11.20
2023-04-16T14:32:52.483Z,11.10
2023-04-16T14:35:23.117Z,11.20
2023-04-16T14:37:52.062Z,11.30
2023-04-16T14:40:21.334Z,11.20
2023-04-16T14:42:50.060Z,11.20
2023-04-16T14:45:19.519Z,11.20
2023-04-16T14:47:48.447Z,11.10
2023-04-16T14:50:17.260Z,11.20
2023-04-16T14:52:47.803Z,11.20
2023-04-16T14:55:16.478Z,11.20
2023-04-16T14:57:46.572Z,11.10
2023-04-16T15:00:19.038Z,11.10
2023-04-16T15:02:48.412Z,10.90
2023-04-16T15:05:19.411Z,10.60
2023-04-16T15:07:50.397Z,10.50
2023-04-16T15:10:19.204Z,10.60
2023-04-16T15:12:48.050Z,10.60
2023-04-16T15:15:17.757Z,10.60
2023-04-16T15:17:48.674Z,10.60
2023-04-16T15:20:19.460Z,10.70
2023-04-16T15:22:49.781Z,10.80
2023-04-16T15:25:19.070Z,11.00
2023-04-16T15:27:47.598Z,11.10
2023-04-16T15:33:00.276Z,11.10
2023-04-16T15:35:28.867Z,11.20
2023-04-16T15:37:58.751Z,11.20
2023-04-16T15:40:27.601Z,11.30
2023-04-16T15:42:57.493Z,11.30
2023-04-16T15:45:32.231Z,11.30
2023-04-16T15:48:01.284Z,11.30
2023-04-16T15:50:30.364Z,11.20
2023-04-16T15:53:00.698Z,11.10
2023-04-16T15:55:29.322Z,11.10
2023-04-16T15:57:58.044Z,11.00
2023-04-16T16:00:27.845Z,11.00
2023-04-16T16:02:57.527Z,11.00
2023-04-16T16:05:26.399Z,10.90
2023-04-16T16:07:55.207Z,10.90
2023-04-16T16:10:26.483Z,10.90
2023-04-16T16:12:55.192Z,11.00
2023-04-16T16:15:24.199Z,10.90
2023-04-16T16:17:53.718Z,10.90
2023-04-16T16:20:24.001Z,10.90
2023-04-16T16:22:53.983Z,11.00
2023-04-16T16:25:24.381Z,11.10
2023-04-16T16:27:56.084Z,11.10
2023-04-16T16:30:24.831Z,11.00
2023-04-16T16:32:54.493Z,11.10
2023-04-16T16:35:23.653Z,11.30
2023-04-16T16:37:56.079Z,11.30
2023-04-16T16:40:27.114Z,11.30
2023-04-16T16:42:55.963Z,11.40
2023-04-16T16:45:26.230Z,11.50
2023-04-16T16:47:55.562Z,11.40
2023-04-16T16:50:24.887Z,11.30
2023-04-16T16:52:53.693Z,11.30
2023-04-16T16:55:22.595Z,11.20
2023-04-16T16:57:53.293Z,11.10
2023-04-16T17:00:22.950Z,11.10
2023-04-16T17:02:52.204Z,11.10
2023-04-16T17:05:21.312Z,11.20
2023-04-16T17:07:49.925Z,11.20
2023-04-16T17:10:21.389Z,11.10
2023-04-16T17:12:52.533Z,11.20
2023-04-16T17:15:21.878Z,11.10
2023-04-16T17:17:51.172Z,11.30
2023-04-16T17:20:20.024Z,11.30
2023-04-16T17:22:48.528Z,11.40
2023-04-16T17:25:17.101Z,11.40
2023-04-16T17:27:45.941Z,11.40
2023-04-16T17:30:17.019Z,11.40
2023-04-16T17:32:45.578Z,11.40
2023-04-16T17:35:15.111Z,11.40
2023-04-16T17:37:43.635Z,11.30
2023-04-16T17:40:14.650Z,11.20
2023-04-16T17:42:43.245Z,11.30
2023-04-16T17:45:13.110Z,11.40
2023-04-16T17:47:44.482Z,11.40
2023-04-16T17:50:13.297Z,11.40
2023-04-16T17:52:42.197Z,11.30
2023-04-16T17:55:12.987Z,11.30
2023-04-16T17:57:44.846Z,11.30
2023-04-16T18:00:14.723Z,11.40
2023-04-16T18:02:46.776Z,11.30
2023-04-16T18:05:15.902Z,11.20
2023-04-16T18:07:44.642Z,11.20
2023-04-16T18:10:13.449Z,11.20
2023-04-16T18:12:42.311Z,11.10
2023-04-16T18:15:12.708Z,11.20
2023-04-16T18:17:41.752Z,11.30
2023-04-16T18:20:17.336Z,11.20
2023-04-16T18:22:45.981Z,11.10
2023-04-16T18:25:16.093Z,11.20
2023-04-16T18:27:45.906Z,11.20
2023-04-16T18:30:22.148Z,11.20
2023-04-16T18:33:25.490Z,11.20
2023-04-16T18:35:45.605Z,11.20
2023-04-16T18:38:14.993Z,11.20
2023-04-16T18:40:43.642Z,11.20
2023-04-16T18:43:12.750Z,11.30
2023-04-16T18:49:00.193Z,11.20
2023-04-16T18:51:30.570Z,11.30
2023-04-16T18:54:01.955Z,11.30
2023-04-16T18:56:31.843Z,11.30
2023-04-16T18:59:00.499Z,11.30
2023-04-16T19:01:29.444Z,11.30
2023-04-16T19:03:58.573Z,11.30
2023-04-16T19:06:28.260Z,11.30
2023-04-16T19:08:59.063Z,11.40
2023-04-16T19:11:28.219Z,11.30
2023-04-16T19:13:57.660Z,11.30
2023-04-16T19:16:27.486Z,11.30
2023-04-16T19:18:56.386Z,11.30
2023-04-16T19:21:25.140Z,11.20
2023-04-16T19:23:54.122Z,11.10
2023-04-16T19:26:24.682Z,11.10
2023-04-16T19:28:55.291Z,11.00
2023-04-16T19:31:26.103Z,11.10
2023-04-16T19:33:54.868Z,11.10
2023-04-16T19:36:23.844Z,11.10
2023-04-16T19:38:52.721Z,11.10
2023-04-16T19:41:21.629Z,11.10
2023-04-16T19:43:54.364Z,11.20
2023-04-16T19:46:23.296Z,11.20
2023-04-16T19:48:52.098Z,11.30
2023-04-16T19:51:20.894Z,11.40
2023-04-16T19:53:50.579Z,11.40
2023-04-16T19:56:19.225Z,11.40
2023-04-16T19:58:48.207Z,11.40
2023-04-16T20:01:18.644Z,11.40
2023-04-16T20:03:47.359Z,11.40
2023-04-16T20:06:18.612Z,11.50
2023-04-16T20:08:47.528Z,11.40
2023-04-16T20:11:17.732Z,11.40
2023-04-16T20:13:48.509Z,11.40
2023-04-16T20:16:23.056Z,11.50
2023-04-16T20:18:54.379Z,11.40
2023-04-16T20:21:23.500Z,11.50
2023-04-16T20:23:52.146Z,11.50
2023-04-16T20:26:20.973Z,11.50
2023-04-16T20:28:52.108Z,11.60
2023-04-16T20:31:24.534Z,11.50
2023-04-16T20:33:54.233Z,11.50
2023-04-16T20:36:24.565Z,11.50
2023-04-16T20:38:55.047Z,11.40
2023-04-16T20:41:25.958Z,11.40
2023-04-16T20:43:54.689Z,11.50
2023-04-16T20:46:25.085Z,11.40
2023-04-16T20:48:54.034Z,11.40
2023-04-16T20:51:22.762Z,11.40
2023-04-16T20:53:52.542Z,11.40
2023-04-16T20:56:21.985Z,11.30
2023-04-16T20:58:50.780Z,11.30
2023-04-16T21:01:20.734Z,11.40
2023-04-16T21:03:54.479Z,11.50
2023-04-16T21:06:24.913Z,11.50
2023-04-16T21:08:53.331Z,11.60
2023-04-16T21:11:22.094Z,11.50
2023-04-16T21:13:50.793Z,11.40
2023-04-16T21:16:19.586Z,11.50
2023-04-16T21:18:48.116Z,11.40
2023-04-16T21:21:19.195Z,11.50
2023-04-16T21:23:47.789Z,11.50
2023-04-16T21:26:16.555Z,11.50
2023-04-16T21:28:45.121Z,11.60
2023-04-16T21:31:15.766Z,11.60
2023-04-16T21:33:47.098Z,11.60
2023-04-16T21:36:15.778Z,11.60
2023-04-16T21:38:47.820Z,11.60
2023-04-16T21:41:16.513Z,11.70
2023-04-16T21:43:45.192Z,11.70
2023-04-16T21:46:13.968Z,11.70
2023-04-16T21:48:42.553Z,11.70
2023-04-16T21:51:11.194Z,11.70
2023-04-16T21:53:40.951Z,11.70
2023-04-16T21:56:11.353Z,11.70
2023-04-16T21:58:40.043Z,11.70
2023-04-16T22:01:10.822Z,11.70
2023-04-16T22:03:45.420Z,11.70
2023-04-16T22:06:15.452Z,11.70
2023-04-16T22:08:54.722Z,11.60
